createdAt,value
2018-09-25T00:01:28.093Z,59.90
2018-09-25T00:04:02.112Z,60.10
2018-09-25T00:06:36.156Z,59.90
2018-09-25T00:09:13.189Z,60.20
2018-09-25T00:11:47.507Z,59.30
2018-09-25T00:14:21.757Z,59.60
2018-09-25T00:16:55.985Z,60.60
2018-09-25T00:19:30.356Z,60.90
2018-09-25T00:22:04.541Z,60.80
2018-09-25T00:24:38.481Z,60.00
2018-09-25T00:27:12.800Z,60.40
2018-09-25T00:29:47.011Z,60.60
2018-09-25T00:32:20.945Z,59.80
2018-09-25T00:34:55.135Z,60.10
2018-09-25T00:37:29.378Z,59.60
2018-09-25T00:40:03.242Z,61.00
2018-09-25T00:42:37.487Z,61.30
2018-09-25T00:45:11.481Z,60.80
2018-09-25T00:47:45.824Z,60.70
2018-09-25T00:50:20.048Z,60.80
2018-09-25T00:52:54.220Z,61.00
2018-09-25T00:55:28.529Z,60.90
2018-09-25T00:58:02.828Z,61.10
2018-09-25T01:00:36.768Z,61.50
2018-09-25T01:03:10.788Z,61.50
2018-09-25T01:05:44.717Z,61.80
2018-09-25T01:08:18.551Z,62.10
2018-09-25T01:10:52.602Z,62.00
2018-09-25T01:13:26.560Z,62.00
2018-09-25T01:16:00.687Z,61.10
2018-09-25T01:18:34.713Z,61.30
2018-09-25T01:21:08.903Z,62.10
2018-09-25T01:23:42.964Z,60.80
2018-09-25T01:26:17.140Z,62.10
2018-09-25T01:28:51.239Z,62.90
2018-09-25T01:31:25.244Z,62.00
2018-09-25T01:33:59.392Z,61.80
2018-09-25T01:36:33.267Z,61.20
2018-09-25T01:39:07.428Z,61.00
2018-09-25T01:41:41.325Z,61.80
2018-09-25T01:44:15.287Z,62.20
2018-09-25T01:46:49.253Z,61.60
2018-09-25T01:49:23.427Z,62.80
2018-09-25T01:51:57.601Z,62.80
2018-09-25T01:54:31.537Z,62.30
2018-09-25T01:57:05.609Z,62.60
2018-09-25T01:59:39.852Z,62.20
2018-09-25T02:02:13.949Z,61.60
2018-09-25T02:04:48.171Z,62.40
2018-09-25T02:07:22.312Z,62.30
2018-09-25T02:09:56.213Z,62.40
2018-09-25T02:12:30.244Z,62.60
2018-09-25T02:15:04.564Z,62.60
2018-09-25T02:17:38.575Z,63.00
2018-09-25T02:20:12.763Z,62.60
2018-09-25T02:22:46.679Z,62.30
2018-09-25T02:25:20.687Z,62.50
2018-09-25T02:27:54.585Z,62.20
2018-09-25T02:30:28.532Z,61.80
2018-09-25T02:33:02.660Z,62.40
2018-09-25T02:35:36.584Z,63.30
2018-09-25T02:38:10.672Z,62.90
2018-09-25T02:40:44.895Z,63.00
2018-09-25T02:43:18.969Z,63.20
2018-09-25T02:45:52.884Z,63.20
2018-09-25T02:48:26.844Z,62.80
2018-09-25T02:51:00.934Z,63.20
2018-09-25T02:53:34.816Z,64.00
2018-09-25T02:56:08.872Z,63.80
2018-09-25T02:58:42.963Z,64.40
2018-09-25T03:01:17.179Z,64.60
2018-09-25T03:03:51.171Z,64.40
2018-09-25T03:06:25.405Z,64.60
2018-09-25T03:08:59.392Z,64.20
2018-09-25T03:11:33.532Z,63.10
2018-09-25T03:14:07.514Z,64.20
2018-09-25T03:16:41.596Z,64.20
2018-09-25T03:19:15.859Z,64.50
2018-09-25T03:21:49.872Z,64.40
2018-09-25T03:24:23.804Z,64.50
2018-09-25T03:26:57.893Z,64.40
2018-09-25T03:29:31.980Z,64.30
2018-09-25T03:32:06.015Z,64.80
2018-09-25T03:34:40.274Z,63.60
2018-09-25T03:37:14.185Z,64.80
2018-09-25T03:39:48.287Z,63.60
2018-09-25T03:42:22.278Z,64.50
2018-09-25T03:44:56.265Z,64.60
2018-09-25T03:47:30.292Z,64.50
2018-09-25T03:50:04.425Z,64.80
2018-09-25T03:52:38.628Z,64.50
2018-09-25T03:55:12.624Z,64.90
2018-09-25T03:57:46.814Z,64.80
2018-09-25T04:00:20.969Z,64.30
2018-09-25T04:02:55.157Z,64.50
2018-09-25T04:05:29.224Z,64.40
2018-09-25T04:08:03.485Z,65.80
2018-09-25T04:10:37.737Z,64.50
2018-09-25T04:13:11.925Z,66.00
2018-09-25T04:15:46.235Z,66.10
2018-09-25T04:18:20.409Z,63.60
2018-09-25T04:20:54.607Z,63.90
2018-09-25T04:23:28.677Z,65.00
2018-09-25T04:26:02.826Z,65.50
2018-09-25T04:28:36.876Z,65.40
2018-09-25T04:31:10.877Z,65.30
2018-09-25T04:33:44.876Z,65.20
2018-09-25T04:36:19.009Z,65.00
2018-09-25T04:38:53.011Z,64.90
2018-09-25T04:41:27.151Z,65.10
2018-09-25T04:44:01.217Z,63.90
2018-09-25T04:46:35.084Z,64.80
2018-09-25T04:49:09.044Z,64.90
2018-09-25T04:51:42.939Z,64.70
2018-09-25T04:54:16.836Z,64.50
2018-09-25T04:56:51.044Z,65.10
2018-09-25T04:59:25.101Z,64.70
2018-09-25T05:01:59.013Z,65.40
2018-09-25T05:04:33.051Z,65.60
2018-09-25T05:07:07.093Z,66.30
2018-09-25T05:09:41.054Z,65.90
2018-09-25T05:12:15.046Z,66.40
2018-09-25T05:14:49.075Z,66.50
2018-09-25T05:17:23.336Z,66.00
2018-09-25T05:19:57.228Z,66.00
2018-09-25T05:22:31.404Z,66.60
2018-09-25T05:25:05.627Z,66.40
2018-09-25T05:27:39.684Z,65.00
2018-09-25T05:30:13.834Z,65.50
2018-09-25T05:32:47.784Z,66.30
2018-09-25T05:35:21.715Z,66.60
2018-09-25T05:37:55.634Z,65.70
2018-09-25T05:40:29.584Z,66.20
2018-09-25T05:43:03.694Z,66.90
2018-09-25T05:45:37.795Z,66.90
2018-09-25T05:48:11.484Z,66.20
2018-09-25T05:50:45.784Z,65.30
2018-09-25T05:53:19.956Z,65.40
2018-09-25T05:55:53.914Z,65.80
2018-09-25T05:58:27.958Z,67.10
2018-09-25T06:01:02.063Z,66.40
2018-09-25T06:03:36.054Z,65.90
2018-09-25T06:06:10.090Z,66.50
2018-09-25T06:08:44.183Z,66.90
2018-09-25T06:11:18.316Z,67.10
2018-09-25T06:13:52.402Z,66.30
2018-09-25T06:16:26.459Z,66.50
2018-09-25T06:19:00.509Z,67.50
2018-09-25T06:21:34.388Z,67.10
2018-09-25T06:24:08.571Z,67.40
2018-09-25T06:26:42.752Z,67.50
2018-09-25T06:29:16.957Z,67.10
2018-09-25T06:31:50.899Z,66.80
2018-09-25T06:34:25.118Z,67.50
2018-09-25T06:36:59.028Z,67.00
2018-09-25T06:39:33.275Z,66.60
2018-09-25T06:42:07.299Z,67.30
2018-09-25T06:44:41.594Z,68.30
2018-09-25T06:47:15.691Z,68.30
2018-09-25T06:49:49.697Z,67.60
2018-09-25T06:52:23.702Z,68.20
2018-09-25T06:54:57.855Z,67.50
2018-09-25T06:57:32.021Z,69.20
2018-09-25T07:00:06.130Z,69.70
2018-09-25T07:02:40.237Z,67.90
2018-09-25T07:05:14.224Z,68.10
2018-09-25T07:07:48.320Z,68.70
2018-09-25T07:10:22.361Z,66.70
2018-09-25T07:12:56.521Z,67.00
2018-09-25T07:15:30.554Z,66.70
2018-09-25T07:18:04.540Z,66.40
2018-09-25T07:20:38.623Z,66.30
2018-09-25T07:23:12.904Z,66.40
2018-09-25T07:25:46.976Z,65.10
2018-09-25T07:28:21.149Z,65.70
2018-09-25T07:30:55.233Z,65.60
2018-09-25T07:33:29.369Z,66.20
2018-09-25T07:36:03.351Z,65.90
2018-09-25T07:38:37.471Z,65.40
2018-09-25T07:41:11.630Z,65.60
2018-09-25T07:43:45.647Z,67.40
2018-09-25T07:46:19.756Z,67.40
2018-09-25T07:48:53.988Z,67.10
2018-09-25T07:51:28.022Z,66.40
2018-09-25T07:54:01.937Z,66.70
2018-09-25T07:56:35.999Z,68.10
2018-09-25T07:59:10.289Z,68.30
2018-09-25T08:01:44.479Z,68.10
2018-09-25T08:04:18.480Z,67.90
2018-09-25T08:06:52.787Z,68.70
2018-09-25T08:09:26.736Z,68.30
2018-09-25T08:12:00.749Z,67.50
2018-09-25T08:14:34.887Z,66.80
2018-09-25T08:17:08.920Z,65.30
2018-09-25T08:19:42.869Z,64.60
2018-09-25T08:22:17.015Z,65.00
2018-09-25T08:24:50.981Z,64.40
2018-09-25T08:27:24.868Z,63.80
2018-09-25T08:29:58.938Z,63.30
2018-09-25T08:32:32.926Z,63.20
2018-09-25T08:35:07.041Z,64.00
2018-09-25T08:37:41.153Z,64.70
2018-09-25T08:40:15.210Z,65.30
2018-09-25T08:42:49.405Z,65.10
2018-09-25T08:45:23.525Z,65.40
2018-09-25T08:47:57.632Z,65.80
2018-09-25T08:50:31.661Z,65.90
2018-09-25T08:53:05.652Z,66.50
2018-09-25T08:55:39.788Z,66.30
2018-09-25T08:58:13.748Z,67.60
2018-09-25T09:00:47.771Z,67.20
2018-09-25T09:03:21.836Z,67.50
2018-09-25T09:05:55.949Z,66.20
2018-09-25T09:08:30.093Z,65.80
2018-09-25T09:11:03.996Z,65.00
2018-09-25T09:13:38.037Z,63.90
2018-09-25T09:16:12.039Z,64.20
2018-09-25T09:18:45.933Z,65.40
2018-09-25T09:21:20.068Z,64.90
2018-09-25T09:23:54.045Z,65.70
2018-09-25T09:26:28.063Z,65.30
2018-09-25T09:29:02.109Z,65.10
2018-09-25T09:31:36.100Z,65.30
2018-09-25T09:34:10.201Z,61.40
2018-09-25T09:36:44.179Z,57.90
2018-09-25T09:39:18.216Z,58.50
2018-09-25T09:41:52.206Z,60.00
2018-09-25T09:44:26.192Z,61.20
2018-09-25T09:47:00.257Z,61.00
2018-09-25T09:49:34.340Z,59.80
2018-09-25T09:52:08.697Z,58.50
2018-09-25T09:54:42.888Z,56.90
2018-09-25T09:57:16.902Z,56.30
2018-09-25T09:59:50.867Z,54.50
2018-09-25T10:02:24.810Z,55.00
2018-09-25T10:04:58.748Z,53.30
2018-09-25T10:07:32.960Z,53.40
2018-09-25T10:10:06.969Z,51.90
2018-09-25T10:12:41.158Z,53.00
2018-09-25T10:15:15.195Z,52.50
2018-09-25T10:17:49.176Z,52.60
2018-09-25T10:20:23.304Z,50.90
2018-09-25T10:22:57.399Z,51.30
2018-09-25T10:25:31.408Z,52.30
2018-09-25T10:28:05.503Z,52.90
2018-09-25T10:30:39.640Z,53.30
2018-09-25T10:33:13.687Z,52.60
2018-09-25T10:35:47.657Z,52.60
2018-09-25T10:38:21.621Z,53.10
2018-09-25T10:40:55.758Z,52.90
2018-09-25T10:43:29.824Z,52.20
2018-09-25T10:46:04.319Z,52.90
2018-09-25T10:48:38.312Z,52.00
2018-09-25T10:51:12.325Z,51.70
2018-09-25T10:53:46.339Z,50.60
2018-09-25T10:56:20.566Z,51.20
2018-09-25T10:58:54.681Z,52.10
2018-09-25T11:01:28.656Z,51.80
2018-09-25T11:04:02.643Z,52.30
2018-09-25T11:06:36.576Z,52.30
2018-09-25T11:09:13.639Z,51.20
2018-09-25T11:11:48.276Z,50.90
2018-09-25T11:14:22.321Z,51.60
2018-09-25T11:16:56.212Z,51.30
2018-09-25T11:19:30.492Z,49.10
2018-09-25T11:22:04.353Z,50.30
2018-09-25T11:24:38.360Z,50.40
2018-09-25T11:27:12.316Z,50.80
2018-09-25T11:29:46.437Z,50.30
2018-09-25T11:32:20.500Z,50.00
2018-09-25T11:34:54.507Z,51.00
2018-09-25T11:37:28.670Z,50.90
2018-09-25T11:40:02.651Z,50.20
2018-09-25T11:42:36.866Z,48.70
2018-09-25T11:45:11.014Z,49.40
2018-09-25T11:47:45.140Z,48.90
2018-09-25T11:50:19.147Z,48.40
2018-09-25T11:52:53.024Z,49.60
2018-09-25T11:55:26.956Z,49.90
2018-09-25T11:58:00.864Z,49.70
2018-09-25T12:00:35.028Z,49.00
2018-09-25T12:03:09.109Z,48.30
2018-09-25T12:05:43.324Z,48.00
2018-09-25T12:08:17.375Z,47.10
2018-09-25T12:10:51.378Z,47.80
2018-09-25T12:13:25.592Z,48.50
2018-09-25T12:15:59.753Z,47.60
2018-09-25T12:18:34.025Z,46.50
2018-09-25T12:21:08.030Z,46.90
2018-09-25T12:23:42.096Z,46.50
2018-09-25T12:26:16.150Z,46.00
2018-09-25T12:28:50.574Z,47.70
2018-09-25T12:31:24.815Z,47.00
2018-09-25T12:33:58.965Z,46.20
2018-09-25T12:36:33.163Z,45.60
2018-09-25T12:39:07.284Z,46.50
2018-09-25T12:41:41.536Z,46.10
2018-09-25T12:44:15.761Z,46.60
2018-09-25T12:46:49.827Z,44.50
2018-09-25T12:49:23.713Z,44.20
2018-09-25T12:51:58.164Z,45.30
2018-09-25T12:54:32.288Z,44.70
2018-09-25T12:57:06.378Z,44.40
2018-09-25T12:59:40.570Z,44.50
2018-09-25T13:02:14.627Z,43.10
2018-09-25T13:04:48.553Z,43.90
2018-09-25T13:07:22.618Z,43.00
2018-09-25T13:09:56.635Z,43.40
2018-09-25T13:12:30.560Z,42.70
2018-09-25T13:15:04.504Z,42.10
2018-09-25T13:17:38.701Z,42.60
2018-09-25T13:20:12.810Z,42.10
2018-09-25T13:22:46.849Z,41.30
2018-09-25T13:25:20.968Z,42.60
2018-09-25T13:27:55.089Z,41.00
2018-09-25T13:30:29.309Z,41.90
2018-09-25T13:33:03.476Z,40.80
2018-09-25T13:35:37.467Z,39.10
2018-09-25T13:38:11.548Z,39.70
2018-09-25T13:40:45.578Z,40.00
2018-09-25T13:43:19.618Z,40.20
2018-09-25T13:45:53.778Z,40.10
2018-09-25T13:48:27.953Z,40.50
2018-09-25T13:51:02.134Z,40.50
2018-09-25T13:53:36.257Z,40.00
2018-09-25T13:56:10.471Z,39.10
2018-09-25T13:58:44.399Z,39.90
2018-09-25T14:01:18.485Z,40.20
2018-09-25T14:03:52.467Z,38.50
2018-09-25T14:06:26.520Z,39.90
2018-09-25T14:09:00.436Z,38.70
2018-09-25T14:11:34.577Z,38.00
2018-09-25T14:14:08.685Z,39.00
2018-09-25T14:16:42.765Z,37.50
2018-09-25T14:19:16.706Z,39.30
2018-09-25T14:21:50.899Z,38.20
2018-09-25T14:24:24.980Z,37.40
2018-09-25T14:26:58.925Z,38.20
2018-09-25T14:29:32.984Z,38.00
2018-09-25T14:32:06.911Z,38.10
2018-09-25T14:34:41.118Z,37.50
2018-09-25T14:37:15.149Z,38.30
2018-09-25T14:39:49.072Z,37.80
2018-09-25T14:42:30.150Z,37.00
2018-09-25T14:45:04.128Z,37.00
2018-09-25T14:47:38.279Z,37.20
2018-09-25T14:50:12.267Z,37.30
2018-09-25T14:52:46.421Z,37.40
2018-09-25T14:55:20.608Z,37.80
2018-09-25T14:57:54.540Z,37.30
2018-09-25T15:00:28.566Z,37.40
2018-09-25T15:03:02.636Z,37.30
2018-09-25T15:05:36.545Z,37.00
2018-09-25T15:08:10.761Z,37.20
2018-09-25T15:10:44.951Z,38.40
2018-09-25T15:13:18.983Z,36.90
2018-09-25T15:15:53.057Z,37.30
2018-09-25T15:18:27.120Z,37.90
2018-09-25T15:21:01.333Z,38.30
2018-09-25T15:23:35.346Z,38.10
2018-09-25T15:26:09.652Z,37.50
2018-09-25T15:28:43.754Z,38.30
2018-09-25T15:31:17.926Z,38.40
2018-09-25T15:33:51.826Z,38.10
2018-09-25T15:36:25.739Z,38.80
2018-09-25T15:39:00.003Z,38.80
2018-09-25T15:41:34.453Z,38.30
2018-09-25T15:44:08.424Z,38.30
2018-09-25T15:46:42.361Z,37.70
2018-09-25T15:49:16.519Z,38.00
2018-09-25T15:51:50.649Z,39.40
2018-09-25T15:54:24.673Z,38.90
2018-09-25T15:56:58.791Z,38.30
2018-09-25T15:59:33.109Z,37.60
2018-09-25T16:02:07.340Z,37.80
2018-09-25T16:04:41.535Z,37.50
2018-09-25T16:07:15.516Z,37.90
2018-09-25T16:09:49.474Z,38.60
2018-09-25T16:12:23.587Z,39.30
2018-09-25T16:14:57.580Z,39.40
2018-09-25T16:17:31.762Z,39.30
2018-09-25T16:20:06.016Z,39.70
2018-09-25T16:22:40.095Z,40.00
2018-09-25T16:25:14.061Z,40.10
2018-09-25T16:27:48.254Z,39.50
2018-09-25T16:30:22.407Z,39.50
2018-09-25T16:32:56.466Z,39.10
2018-09-25T16:35:30.636Z,39.20
2018-09-25T16:38:04.844Z,40.00
2018-09-25T16:40:38.972Z,40.40
2018-09-25T16:43:13.018Z,40.40
2018-09-25T16:45:47.233Z,40.60
2018-09-25T16:48:21.444Z,40.90
2018-09-25T16:50:55.444Z,41.30
2018-09-25T16:53:29.441Z,42.00
2018-09-25T16:56:03.339Z,42.30
2018-09-25T16:58:37.581Z,42.50
2018-09-25T17:01:11.531Z,42.80
2018-09-25T17:03:45.703Z,43.00
2018-09-25T17:06:19.695Z,43.20
2018-09-25T17:08:53.665Z,43.30
2018-09-25T17:11:27.615Z,43.40
2018-09-25T17:14:01.899Z,43.60
2018-09-25T17:16:35.870Z,43.60
2018-09-25T17:19:09.987Z,43.70
2018-09-25T17:21:44.191Z,43.80
2018-09-25T17:24:18.537Z,44.00
2018-09-25T17:26:52.626Z,44.30
2018-09-25T17:29:26.977Z,44.40
2018-09-25T17:32:01.160Z,44.30
2018-09-25T17:34:35.379Z,44.50
2018-09-25T17:37:09.465Z,44.70
2018-09-25T17:39:43.468Z,45.00
2018-09-25T17:42:17.736Z,45.30
2018-09-25T17:44:51.714Z,45.50
2018-09-25T17:47:25.892Z,45.60
2018-09-25T17:50:00.026Z,45.70
2018-09-25T17:52:34.168Z,45.90
2018-09-25T17:55:08.135Z,45.90
2018-09-25T17:57:42.421Z,46.00
2018-09-25T18:00:16.695Z,46.20
2018-09-25T18:02:51.143Z,46.40
2018-09-25T18:05:25.228Z,46.40
2018-09-25T18:07:59.257Z,46.60
2018-09-25T18:10:33.272Z,47.00
2018-09-25T18:13:07.473Z,46.90
2018-09-25T18:15:41.885Z,47.00
2018-09-25T18:18:16.203Z,47.10
2018-09-25T18:20:50.424Z,47.40
2018-09-25T18:23:25.040Z,48.10
2018-09-25T18:25:59.288Z,47.60
2018-09-25T18:28:33.349Z,47.70
2018-09-25T18:31:07.352Z,47.80
2018-09-25T18:33:41.604Z,48.00
2018-09-25T18:36:16.223Z,48.10
2018-09-25T18:38:50.750Z,48.30
2018-09-25T18:41:24.995Z,48.30
2018-09-25T18:43:59.193Z,48.40
2018-09-25T18:46:33.409Z,48.70
2018-09-25T18:49:14.013Z,48.70
2018-09-25T18:51:48.395Z,48.70
2018-09-25T18:54:22.481Z,48.50
2018-09-25T18:56:56.803Z,48.20
2018-09-25T18:59:31.129Z,49.20
2018-09-25T19:02:05.408Z,49.60
2018-09-25T19:04:39.848Z,49.70
2018-09-25T19:07:14.045Z,49.70
2018-09-25T19:09:48.251Z,49.60
2018-09-25T19:12:22.493Z,49.10
2018-09-25T19:14:56.737Z,48.90
2018-09-25T19:17:30.894Z,48.70
2018-09-25T19:20:05.186Z,48.90
2018-09-25T19:22:41.497Z,48.90
2018-09-25T19:25:18.102Z,48.90
2018-09-25T19:27:54.195Z,48.80
2018-09-25T19:30:28.661Z,48.70
2018-09-25T19:33:02.700Z,49.30
2018-09-25T19:35:36.883Z,48.80
2018-09-25T19:38:11.093Z,48.50
2018-09-25T19:40:45.414Z,48.40
2018-09-25T19:43:19.731Z,48.60
2018-09-25T19:45:54.013Z,49.10
2018-09-25T19:48:28.118Z,49.10
2018-09-25T19:51:02.253Z,49.20
2018-09-25T19:53:36.380Z,49.20
2018-09-25T19:56:10.634Z,49.10
2018-09-25T19:58:44.693Z,48.90
2018-09-25T20:01:19.539Z,48.90
2018-09-25T20:03:53.594Z,48.90
2018-09-25T20:06:27.827Z,48.60
2018-09-25T20:09:02.423Z,48.50
2018-09-25T20:11:37.132Z,48.30
2018-09-25T20:14:11.780Z,48.20
2018-09-25T20:16:46.473Z,48.00
2018-09-25T20:19:20.592Z,47.30
2018-09-25T20:21:54.995Z,47.40
2018-09-25T20:24:28.985Z,46.90
2018-09-25T20:27:03.526Z,47.00
2018-09-25T20:29:37.739Z,46.30
2018-09-25T20:32:11.929Z,45.80
2018-09-25T20:34:46.178Z,45.30
2018-09-25T20:37:20.496Z,45.80
2018-09-25T20:39:54.798Z,45.80
2018-09-25T20:42:30.842Z,45.00
2018-09-25T20:45:07.399Z,45.00
2018-09-25T20:47:41.881Z,45.00
2018-09-25T20:50:16.185Z,44.90
2018-09-25T20:54:49.264Z,44.90
2018-09-25T20:57:23.387Z,45.30
2018-09-25T20:59:57.314Z,45.50
2018-09-25T21:02:31.380Z,46.40
2018-09-25T21:05:05.517Z,46.60
2018-09-25T21:07:39.665Z,46.90
2018-09-25T21:10:13.634Z,46.50
2018-09-25T21:12:47.681Z,46.00
2018-09-25T21:15:21.814Z,46.10
2018-09-25T21:17:56.049Z,46.40
2018-09-25T21:20:30.216Z,46.40
2018-09-25T21:23:04.270Z,46.50
2018-09-25T21:25:38.365Z,46.60
2018-09-25T21:28:12.527Z,46.50
2018-09-25T21:30:46.742Z,47.70
2018-09-25T21:33:21.003Z,47.70
2018-09-25T21:35:54.997Z,47.90
2018-09-25T21:38:29.113Z,47.70
2018-09-25T21:41:03.293Z,47.30
2018-09-25T21:43:37.501Z,47.30
2018-09-25T21:46:11.742Z,47.00
2018-09-25T21:48:45.763Z,47.30
2018-09-25T21:51:20.181Z,47.10
2018-09-25T21:53:53.919Z,47.00
2018-09-25T21:56:28.488Z,47.00
2018-09-25T21:59:02.676Z,46.90
2018-09-25T22:01:37.011Z,46.90
2018-09-25T22:04:11.207Z,46.90
2018-09-25T22:06:45.288Z,47.10
2018-09-25T22:09:19.444Z,47.50
2018-09-25T22:11:53.563Z,47.70
2018-09-25T22:14:27.912Z,47.80
2018-09-25T22:17:02.198Z,47.80
2018-09-25T22:19:36.456Z,47.80
2018-09-25T22:22:10.759Z,48.00
2018-09-25T22:24:44.752Z,47.70
2018-09-25T22:27:18.880Z,48.30
2018-09-25T22:29:53.270Z,48.60
2018-09-25T22:32:27.512Z,48.60
2018-09-25T22:35:01.605Z,48.80
2018-09-25T22:37:36.884Z,48.50
2018-09-25T22:40:11.321Z,48.60
2018-09-25T22:42:45.300Z,48.40
2018-09-25T22:45:19.512Z,48.40
2018-09-25T22:47:53.696Z,48.40
2018-09-25T22:50:27.934Z,48.20
2018-09-25T22:53:02.051Z,48.00
2018-09-25T22:55:36.023Z,48.10
2018-09-25T22:58:10.108Z,49.20
2018-09-25T23:00:44.331Z,50.80
2018-09-25T23:03:18.431Z,51.20
2018-09-25T23:05:52.503Z,51.60
2018-09-25T23:08:26.357Z,51.60
2018-09-25T23:11:00.591Z,53.00
2018-09-25T23:13:34.639Z,53.40
2018-09-25T23:16:08.931Z,53.60
2018-09-25T23:18:43.019Z,53.40
2018-09-25T23:21:17.111Z,53.30
2018-09-25T23:23:51.362Z,53.60
2018-09-25T23:26:25.298Z,54.00
2018-09-25T23:28:59.393Z,53.60
2018-09-25T23:31:33.502Z,54.00
2018-09-25T23:34:07.447Z,53.20
2018-09-25T23:36:41.460Z,53.60
2018-09-25T23:39:14.727Z,53.50
2018-09-25T23:41:47.843Z,54.00
2018-09-25T23:44:39.937Z,53.90
2018-09-25T23:47:17.147Z,54.20
2018-09-25T23:50:51.247Z,54.10
2018-09-25T23:53:26.682Z,54.20
2018-09-25T23:56:00.803Z,54.20
2018-09-25T23:58:34.043Z,54.40
